Mr Connor — WDF2688 — position and weather

sailwx.info

Track history (hours):
 
Tides and Currents Weather Stations Pressure Air Temp Water Temp Dewpoint Dewpoint Depression Visibility Wind Speed Wind Dir Waves Ship Positions

Mr Connor

Owner: Marquette Transportation Company Offshore LLC, Jefferson, LA. More information available from US FCC via Universal Licensing System and Coast Guard Vessel Documentation Center.

Last reported at 2017-Nov-23 21:12 UTC. Time now 2017-Nov-24 22:16 UTC.
Position N 34°52' W 076°16'.

Length 20 m; draft 3 m.

Type: Tug. MMSI: 367430750.

Date/timePositionNaut miles runAvg speedWind from/ knotsBaromVisibWave heightAir tempDewpointWater temp
2017-Nov-23 21:12N 34°52' W 076°16'1 5.6
2017-Nov-23 20:59N 34°51' W 076°17'27 4.6
2017-Nov-23 15:13N 34°28' W 076°33'2 5.6
2017-Nov-23 14:55N 34°29' W 076°35'2 5.8
2017-Nov-23 14:30N 34°30' W 076°37'3 6.0
2017-Nov-23 14:00N 34°32' W 076°40'3 6.2
2017-Nov-23 13:30N 34°34' W 076°43'3 6.0
2017-Nov-23 13:00N 34°35' W 076°46'3 6.0
2017-Nov-23 12:30N 34°37' W 076°49'3 6.1
2017-Nov-23 12:00N 34°38' W 076°53'3 6.0
2017-Nov-23 11:30N 34°38' W 076°56'  
2017-Nov-19 13:04N 27°02' W 079°55'1 9.9
2017-Nov-19 12:59N 27°01' W 079°55'5 9.7
2017-Nov-19 12:30N 26°56' W 079°53'35 9.7
2017-Nov-19 08:54N 26°22' W 079°47'4 9.9
2017-Nov-19 08:30N 26°18' W 079°47'5 9.8
2017-Nov-19 07:58N 26°13' W 079°48'5 9.7
2017-Nov-19 07:30N 26°09' W 079°50'5 9.6
2017-Nov-19 07:00N 26°04' W 079°51'5 9.2
2017-Nov-19 06:29N 25°59' W 079°53'5 9.6
2017-Nov-19 06:00N 25°55' W 079°53'5 9.8
2017-Nov-19 05:30N 25°50' W 079°54'5 9.7
2017-Nov-19 05:00N 25°45' W 079°55'5 9.4
2017-Nov-19 04:30N 25°41' W 079°57'5 9.4
2017-Nov-19 04:00N 25°36' W 079°58'  
Track history (hours):
 
Tides and Currents Weather Stations Pressure Air Temp Water Temp Dewpoint Dewpoint Depression Visibility Wind Speed Wind Dir Waves Ship Positions

Mr Connor

Owner: Marquette Transportation Company Offshore LLC, Jefferson, LA. More information available from US FCC via Universal Licensing System and Coast Guard Vessel Documentation Center.

Last reported at 2017-Nov-23 21:12 UTC. Time now 2017-Nov-24 22:16 UTC.
Position N 34°52' W 076°16'.

Length 20 m; draft 3 m.

Type: Tug. MMSI: 367430750.

Date/timePositionNaut miles runAvg speedWind from/ knotsBaromVisibWave heightAir tempDewpointWater temp
2017-Nov-23 21:12N 34°52' W 076°16'1 5.6
2017-Nov-23 20:59N 34°51' W 076°17'27 4.6
2017-Nov-23 15:13N 34°28' W 076°33'2 5.6
2017-Nov-23 14:55N 34°29' W 076°35'2 5.8
2017-Nov-23 14:30N 34°30' W 076°37'3 6.0
2017-Nov-23 14:00N 34°32' W 076°40'3 6.2
2017-Nov-23 13:30N 34°34' W 076°43'3 6.0
2017-Nov-23 13:00N 34°35' W 076°46'3 6.0
2017-Nov-23 12:30N 34°37' W 076°49'3 6.1
2017-Nov-23 12:00N 34°38' W 076°53'3 6.0
2017-Nov-23 11:30N 34°38' W 076°56'  
2017-Nov-19 13:04N 27°02' W 079°55'1 9.9
2017-Nov-19 12:59N 27°01' W 079°55'5 9.7
2017-Nov-19 12:30N 26°56' W 079°53'35 9.7
2017-Nov-19 08:54N 26°22' W 079°47'4 9.9
2017-Nov-19 08:30N 26°18' W 079°47'5 9.8
2017-Nov-19 07:58N 26°13' W 079°48'5 9.7
2017-Nov-19 07:30N 26°09' W 079°50'5 9.6
2017-Nov-19 07:00N 26°04' W 079°51'5 9.2
2017-Nov-19 06:29N 25°59' W 079°53'5 9.6
2017-Nov-19 06:00N 25°55' W 079°53'5 9.8
2017-Nov-19 05:30N 25°50' W 079°54'5 9.7
2017-Nov-19 05:00N 25°45' W 079°55'5 9.4
2017-Nov-19 04:30N 25°41' W 079°57'5 9.4
2017-Nov-19 04:00N 25°36' W 079°58'  

Dump ship's entire track history